createdAt,value
2023-01-10T00:03:28.130Z,97694.52
2023-01-10T00:13:55.900Z,97707.38
2023-01-10T00:24:23.805Z,97718.69
2023-01-10T00:34:51.351Z,97722.52
2023-01-10T00:45:19.959Z,97737.08
2023-01-10T00:55:47.866Z,97752.23
2023-01-10T01:06:15.520Z,97769.78
2023-01-10T01:16:43.109Z,97774.13
2023-01-10T01:27:10.673Z,97778.61
2023-01-10T01:37:38.169Z,97787.70
2023-01-10T01:48:11.017Z,97793.59
2023-01-10T01:58:45.233Z,97796.06
2023-01-10T02:09:19.738Z,97798.55
2023-01-10T02:19:52.896Z,97803.35
2023-01-10T02:31:11.392Z,97816.77
2023-01-10T02:41:47.420Z,97829.45
2023-01-10T02:52:19.873Z,97842.91
2023-01-10T03:03:07.934Z,97855.02
2023-01-10T03:13:40.685Z,97870.66
2023-01-10T03:24:12.707Z,97882.83
2023-01-10T03:34:41.126Z,97905.29
2023-01-10T03:45:16.282Z,97922.48
2023-01-10T03:55:46.468Z,97934.96
2023-01-10T04:06:14.212Z,97947.81
2023-01-10T04:16:41.769Z,97957.95
2023-01-10T04:27:09.612Z,97964.74
2023-01-10T04:37:37.975Z,97974.36
2023-01-10T04:48:06.897Z,97992.45
2023-01-10T04:58:42.879Z,98008.95
2023-01-10T05:09:10.645Z,98029.61
2023-01-10T05:19:38.301Z,98047.89
2023-01-10T05:30:07.688Z,98072.43
2023-01-10T05:40:35.457Z,98081.43
2023-01-10T05:51:03.008Z,98097.66
2023-01-10T06:01:30.659Z,98104.39
2023-01-10T06:11:58.306Z,98126.74
2023-01-10T06:22:26.414Z,98145.08
2023-01-10T06:32:53.923Z,98163.89
2023-01-10T06:43:21.416Z,98184.95
2023-01-10T06:53:48.980Z,98201.52
2023-01-10T07:04:16.536Z,98211.69
2023-01-10T07:14:44.288Z,98222.58
2023-01-10T07:25:12.436Z,98239.15
2023-01-10T07:35:40.314Z,98248.99
2023-01-10T07:46:09.765Z,98253.48
2023-01-10T07:56:37.285Z,98260.55
2023-01-10T08:07:04.839Z,98275.20
2023-01-10T08:17:33.624Z,98291.98
2023-01-10T08:28:01.367Z,98299.41
2023-01-10T08:38:29.687Z,98304.95
2023-01-10T08:48:58.013Z,98327.58
2023-01-10T08:59:25.583Z,98347.09
2023-01-10T09:09:52.996Z,98366.95
2023-01-10T09:20:20.701Z,98386.85
2023-01-10T09:30:48.990Z,98407.59
2023-01-10T09:41:31.257Z,98419.86
2023-01-10T09:52:00.227Z,98429.37
2023-01-10T10:02:31.723Z,98436.61
2023-01-10T10:13:26.424Z,98440.93
2023-01-10T10:24:10.436Z,98452.16
2023-01-10T10:34:43.334Z,98460.10
2023-01-10T10:45:20.507Z,98470.64
2023-01-10T10:55:48.973Z,98480.30
2023-01-10T11:06:19.387Z,98493.29
2023-01-10T11:16:47.091Z,98504.20
2023-01-10T11:27:20.721Z,98513.37
2023-01-10T11:38:01.948Z,98530.29
2023-01-10T11:48:59.754Z,98537.91
2023-01-10T11:59:21.765Z,98558.42
2023-01-10T12:10:01.635Z,98573.08
2023-01-10T12:20:32.440Z,98577.69
2023-01-10T12:31:02.486Z,98588.38
2023-01-10T12:41:58.237Z,98608.05
2023-01-10T12:52:34.636Z,98613.39
2023-01-10T13:03:05.072Z,98623.11
2023-01-10T13:13:37.236Z,98618.73
2023-01-10T13:24:07.006Z,98622.84
2023-01-10T13:34:37.623Z,98637.13
2023-01-10T13:45:26.013Z,98657.80
2023-01-10T13:55:59.896Z,98674.19
2023-01-10T14:06:43.777Z,98687.80
2023-01-10T14:17:22.719Z,98690.74
2023-01-10T14:27:52.883Z,98703.86
2023-01-10T14:38:24.863Z,98705.92
2023-01-10T14:48:55.338Z,98725.29
2023-01-10T14:59:27.417Z,98745.48
2023-01-10T15:09:57.382Z,98749.12
2023-01-10T15:20:25.275Z,98762.54
2023-01-10T15:30:53.593Z,98771.65
2023-01-10T15:41:23.848Z,98773.13
2023-01-10T15:51:51.787Z,98775.52
2023-01-10T16:02:26.057Z,98804.05
2023-01-10T16:13:11.372Z,98807.76
2023-01-10T16:23:39.115Z,98811.76
2023-01-10T16:34:06.707Z,98818.92
2023-01-10T16:44:35.377Z,98837.45
2023-01-10T16:55:03.167Z,98857.12
2023-01-10T17:05:30.864Z,98883.20
2023-01-10T17:15:58.879Z,98906.35
2023-01-10T17:26:26.516Z,98928.02
2023-01-10T17:36:54.169Z,98937.17
2023-01-10T17:47:21.704Z,98946.08
2023-01-10T17:57:49.458Z,98952.38
2023-01-10T18:08:17.031Z,98961.77
2023-01-10T18:18:44.555Z,98967.30
2023-01-10T18:29:12.170Z,98968.02
2023-01-10T18:39:39.657Z,98975.09
2023-01-10T18:50:08.298Z,98981.38
2023-01-10T19:00:35.826Z,98985.05
2023-01-10T19:11:13.303Z,98983.75
2023-01-10T19:21:42.314Z,98991.52
2023-01-10T19:32:10.533Z,98999.71
2023-01-10T19:42:39.964Z,99007.20
2023-01-10T19:53:07.599Z,99010.59
2023-01-10T20:03:35.161Z,99010.91
2023-01-10T20:14:02.649Z,99017.25
2023-01-10T20:24:30.264Z,99022.39
2023-01-10T20:34:57.961Z,99028.87
2023-01-10T20:45:25.607Z,99031.59
2023-01-10T20:55:59.696Z,99041.01
2023-01-10T21:06:28.542Z,99049.33
2023-01-10T21:16:56.177Z,99045.12
2023-01-10T21:27:24.485Z,99041.48
2023-01-10T21:37:52.092Z,99066.25
2023-01-10T21:48:19.650Z,99079.33
2023-01-10T21:58:48.139Z,99075.58
2023-01-10T22:09:14.369Z,99075.23
2023-01-10T22:19:42.500Z,99067.95
2023-01-10T22:30:13.346Z,99071.89
2023-01-10T22:40:40.950Z,99079.67
2023-01-10T22:51:09.508Z,99077.67
2023-01-10T23:01:37.307Z,99070.36
2023-01-10T23:12:04.975Z,99074.23
2023-01-10T23:22:32.733Z,99074.92
2023-01-10T23:33:00.217Z,99067.05
2023-01-10T23:43:27.985Z,99068.54
2023-01-10T23:53:55.678Z,99077.71
